Time;durP1;ratioP1;P1;durP2;ratioP2;P2;SDS_P1;SDS_P2;PMS_P1;PMS_P2;Temp;Humidity;BMP_temperature;BMP_pressure;BME280_temperature;BME280_humidity;BME280_pressure;Samples;Min_cycle;Max_cycle;Signal;HPM_P1;HPM_P2
2021/06/12 00:01:07;;;;;;;35.15;5.85;;;14.60;99.90;;;;;;5116001;27;20692;-60
2021/06/12 00:03:36;;;;;;;21.83;5.30;;;14.50;99.90;;;;;;5133749;27;20188;-60
2021/06/12 00:06:03;;;;;;;23.73;5.25;;;14.50;99.90;;;;;;5134711;27;20175;-59
2021/06/12 00:08:29;;;;;;;18.38;5.32;;;14.50;99.90;;;;;;5134232;27;20176;-60
2021/06/12 00:10:55;;;;;;;21.33;6.07;;;14.50;99.90;;;;;;5134078;27;20172;-59
2021/06/12 00:13:22;;;;;;;21.00;5.30;;;14.40;99.90;;;;;;5131592;27;20187;-59
2021/06/12 00:15:48;;;;;;;21.42;5.70;;;14.40;99.90;;;;;;5132019;27;20180;-60
2021/06/12 00:18:14;;;;;;;31.65;6.00;;;14.40;99.90;;;;;;5133481;27;20183;-61
2021/06/12 00:20:40;;;;;;;16.80;5.43;;;14.40;99.90;;;;;;5132773;27;20183;-60
2021/06/12 00:23:06;;;;;;;21.73;5.47;;;14.40;99.90;;;;;;5132563;27;20219;-60
2021/06/12 00:25:33;;;;;;;22.40;5.20;;;14.40;99.90;;;;;;5115910;27;20171;-60
2021/06/12 00:27:59;;;;;;;17.42;4.65;;;14.30;99.90;;;;;;5132883;27;20195;-59
2021/06/12 00:30:25;;;;;;;23.60;5.38;;;14.30;99.90;;;;;;5133355;27;20188;-60
2021/06/12 00:32:53;;;;;;;25.92;6.30;;;14.30;99.90;;;;;;5115115;27;20175;-60
2021/06/12 00:35:19;;;;;;;22.60;5.53;;;14.40;99.90;;;;;;5132233;27;20191;-60
2021/06/12 00:37:45;;;;;;;22.02;5.57;;;14.30;99.90;;;;;;5133517;27;20215;-60
2021/06/12 00:40:12;;;;;;;25.33;7.05;;;14.30;99.90;;;;;;5133543;27;20182;-61
2021/06/12 00:42:39;;;;;;;26.48;5.70;;;14.30;99.90;;;;;;5113630;27;20220;-60
2021/06/12 00:45:07;;;;;;;30.42;7.68;;;14.30;99.90;;;;;;5132974;27;20176;-59
2021/06/12 00:47:33;;;;;;;27.85;6.90;;;14.30;99.90;;;;;;5132974;27;20540;-62
2021/06/12 00:49:59;;;;;;;18.27;5.47;;;14.20;99.90;;;;;;5133036;27;20172;-60
2021/06/12 00:52:25;;;;;;;24.00;6.32;;;14.20;99.90;;;;;;5131987;27;20192;-59
2021/06/12 00:54:51;;;;;;;26.80;6.22;;;14.20;99.90;;;;;;5132805;27;20179;-59
2021/06/12 00:57:17;;;;;;;24.70;6.22;;;14.20;99.90;;;;;;5114733;27;20171;-59
2021/06/12 00:59:43;;;;;;;21.73;6.03;;;14.20;99.90;;;;;;5113970;27;20176;-60
2021/06/12 01:02:09;;;;;;;24.20;6.22;;;14.20;99.90;;;;;;5113541;27;20216;-59
2021/06/12 01:04:36;;;;;;;22.23;5.85;;;14.20;99.90;;;;;;5114492;28;20176;-60
2021/06/12 01:07:02;;;;;;;24.58;5.82;;;14.20;99.90;;;;;;5133010;27;20191;-60
2021/06/12 01:09:28;;;;;;;26.60;6.80;;;14.20;99.90;;;;;;5132564;28;20187;-63
2021/06/12 01:12:18;;;;;;;20.73;5.30;;;14.20;99.90;;;;;;5133100;28;20176;-60
2021/06/12 01:14:46;;;;;;;25.10;5.07;;;14.20;99.90;;;;;;5133091;28;20156;-60
2021/06/12 01:17:16;;;;;;;19.38;5.97;;;14.20;99.90;;;;;;5096336;28;20183;-60
2021/06/12 01:19:51;;;;;;;20.85;6.13;;;14.10;99.90;;;;;;5097755;28;20163;-60
2021/06/12 01:22:31;;;;;;;25.20;6.38;;;14.10;99.90;;;;;;5119778;28;20211;-63
2021/06/12 01:25:07;;;;;;;28.85;7.47;;;14.10;99.90;;;;;;5115667;28;20164;-61
2021/06/12 01:27:58;;;;;;;20.95;5.72;;;14.00;99.90;;;;;;5132335;28;20175;-59
2021/06/12 01:30:30;;;;;;;16.70;5.47;;;14.00;99.90;;;;;;5131655;28;20183;-59
2021/06/12 01:33:05;;;;;;;26.95;5.63;;;14.00;99.90;;;;;;5111605;28;20261;-60
2021/06/12 01:35:34;;;;;;;26.33;7.03;;;14.00;99.90;;;;;;5114208;28;20585;-60
2021/06/12 01:38:01;;;;;;;25.92;6.07;;;14.00;99.90;;;;;;5132021;28;20192;-60
2021/06/12 01:40:30;;;;;;;19.15;4.93;;;14.00;99.90;;;;;;5132875;28;20179;-61
2021/06/12 01:42:57;;;;;;;25.70;4.85;;;13.90;99.90;;;;;;5097997;28;20214;-61
2021/06/12 01:45:23;;;;;;;16.45;4.72;;;14.00;99.90;;;;;;5097962;27;20191;-61
2021/06/12 01:47:51;;;;;;;14.90;4.65;;;14.00;99.90;;;;;;5118476;27;20171;-61
2021/06/12 01:50:17;;;;;;;19.77;4.80;;;14.00;99.90;;;;;;5117731;27;20159;-60
2021/06/12 01:52:44;;;;;;;26.33;4.75;;;13.90;99.90;;;;;;5118667;27;20242;-60
2021/06/12 01:55:11;;;;;;;21.58;4.97;;;13.90;99.90;;;;;;5118043;27;20556;-61
2021/06/12 01:57:39;;;;;;;17.75;4.10;;;13.90;99.90;;;;;;5101405;27;20546;-61
2021/06/12 02:00:06;;;;;;;14.65;4.68;;;14.00;99.90;;;;;;5108962;27;20175;-61
2021/06/12 02:02:32;;;;;;;16.65;4.40;;;13.90;99.90;;;;;;5135883;27;20213;-60
2021/06/12 02:04:58;;;;;;;17.73;4.50;;;13.90;99.90;;;;;;5117843;27;20539;-60
2021/06/12 02:07:24;;;;;;;18.77;4.78;;;13.90;99.90;;;;;;5100892;27;20183;-62
2021/06/12 02:09:51;;;;;;;24.80;4.47;;;13.90;99.90;;;;;;5101053;27;20681;-61
2021/06/12 02:12:18;;;;;;;19.25;4.55;;;13.90;99.90;;;;;;5100679;27;20192;-61
2021/06/12 02:14:44;;;;;;;23.05;4.30;;;13.90;99.90;;;;;;5117373;27;20191;-61
2021/06/12 02:17:10;;;;;;;12.00;3.92;;;13.90;99.90;;;;;;5080352;28;20555;-62
2021/06/12 02:19:37;;;;;;;22.90;4.18;;;13.90;99.90;;;;;;5116814;27;20176;-62
2021/06/12 02:22:04;;;;;;;16.20;3.80;;;13.90;99.90;;;;;;5118420;27;20209;-61
2021/06/12 02:24:30;;;;;;;18.08;5.03;;;13.90;99.90;;;;;;5083320;27;20188;-61
2021/06/12 02:26:56;;;;;;;21.80;4.30;;;13.90;99.90;;;;;;5134964;27;20187;-61
2021/06/12 02:29:22;;;;;;;17.42;3.20;;;13.90;99.90;;;;;;5136329;27;20175;-61
2021/06/12 02:31:50;;;;;;;19.67;3.78;;;13.90;99.90;;;;;;5099731;27;20187;-61
2021/06/12 02:34:17;;;;;;;18.25;3.55;;;13.90;99.90;;;;;;5096147;27;20229;-61
2021/06/12 02:36:44;;;;;;;19.60;3.70;;;13.90;99.90;;;;;;5135208;27;20183;-60
2021/06/12 02:39:11;;;;;;;15.43;3.17;;;13.90;99.90;;;;;;5110451;27;20203;-60
2021/06/12 02:41:37;;;;;;;14.55;3.33;;;13.90;99.90;;;;;;5135358;27;20212;-59
2021/06/12 02:44:03;;;;;;;18.20;4.10;;;13.90;99.90;;;;;;5136199;27;20195;-60
2021/06/12 02:46:31;;;;;;;20.67;3.80;;;14.00;99.90;;;;;;5135670;27;20176;-60
2021/06/12 02:48:59;;;;;;;14.75;2.70;;;14.00;99.90;;;;;;5117331;27;20172;-60
2021/06/12 02:51:26;;;;;;;8.82;3.30;;;14.00;99.90;;;;;;5099683;27;20175;-61
2021/06/12 02:53:52;;;;;;;19.60;4.32;;;13.90;99.90;;;;;;5100797;27;20168;-60
2021/06/12 02:56:19;;;;;;;17.25;3.53;;;13.90;99.90;;;;;;5117417;27;20543;-60
2021/06/12 02:58:45;;;;;;;18.30;3.47;;;13.90;99.90;;;;;;5115581;27;20179;-60
2021/06/12 03:01:13;;;;;;;14.65;3.90;;;13.90;99.90;;;;;;5116376;27;20542;-59
2021/06/12 03:03:39;;;;;;;16.98;3.20;;;13.90;99.90;;;;;;5135683;27;20211;-60
2021/06/12 03:06:05;;;;;;;9.10;2.67;;;14.00;99.90;;;;;;5099643;27;20620;-60
2021/06/12 03:08:36;;;;;;;15.95;4.13;;;14.00;99.90;;;;;;5116426;27;20180;-60
2021/06/12 03:11:04;;;;;;;21.30;3.83;;;13.90;99.90;;;;;;5100479;27;20167;-60
2021/06/12 03:13:30;;;;;;;29.13;3.63;;;14.00;99.90;;;;;;5134243;27;20195;-60
2021/06/12 03:15:57;;;;;;;10.05;3.30;;;13.90;99.90;;;;;;5116968;27;20520;-60
2021/06/12 03:18:23;;;;;;;18.13;3.10;;;13.90;99.90;;;;;;5116118;27;20180;-61
2021/06/12 03:20:52;;;;;;;15.10;3.70;;;13.90;99.90;;;;;;5082194;27;20198;-60
2021/06/12 03:23:18;;;;;;;10.65;3.13;;;13.90;99.90;;;;;;5116145;27;20204;-60
2021/06/12 03:25:44;;;;;;;14.82;4.10;;;13.90;99.90;;;;;;5098934;27;20288;-60
2021/06/12 03:28:10;;;;;;;18.73;3.90;;;13.90;99.90;;;;;;5099939;27;20175;-61
2021/06/12 03:30:37;;;;;;;12.82;3.30;;;14.00;99.90;;;;;;5099707;27;20179;-60
2021/06/12 03:33:04;;;;;;;12.07;3.33;;;13.90;99.90;;;;;;5134604;27;20671;-60
2021/06/12 03:35:30;;;;;;;12.15;3.10;;;13.90;99.90;;;;;;5116165;27;20172;-60
2021/06/12 03:37:56;;;;;;;16.98;4.07;;;13.90;99.90;;;;;;5116380;27;20192;-60
2021/06/12 03:40:23;;;;;;;12.13;3.25;;;13.90;99.90;;;;;;5097973;27;20179;-60
2021/06/12 03:42:49;;;;;;;17.55;4.60;;;13.90;99.90;;;;;;5116008;27;20564;-60
2021/06/12 03:45:15;;;;;;;21.48;3.95;;;13.90;99.90;;;;;;5115986;27;20535;-60
2021/06/12 03:47:42;;;;;;;16.92;3.78;;;13.90;99.90;;;;;;5115563;27;20182;-60
2021/06/12 03:50:09;;;;;;;19.58;4.70;;;13.90;99.90;;;;;;5134340;27;20648;-60
2021/06/12 03:52:35;;;;;;;19.30;4.35;;;13.90;99.90;;;;;;5133957;27;20643;-60
2021/06/12 03:55:02;;;;;;;16.23;4.68;;;13.90;99.90;;;;;;5115680;27;20183;-60
2021/06/12 03:57:28;;;;;;;17.75;4.30;;;13.90;99.90;;;;;;5134439;27;20168;-60
2021/06/12 03:59:55;;;;;;;21.20;4.63;;;13.90;99.90;;;;;;5134429;27;20180;-61
2021/06/12 04:02:21;;;;;;;13.43;4.53;;;13.90;99.90;;;;;;5116187;27;20220;-60
2021/06/12 04:04:48;;;;;;;22.33;5.03;;;13.90;99.90;;;;;;5115056;27;20539;-60
2021/06/12 04:07:17;;;;;;;21.75;5.30;;;13.90;99.90;;;;;;5133048;27;20179;-59
2021/06/12 04:09:43;;;;;;;30.25;4.85;;;13.90;99.90;;;;;;5132376;27;20168;-60
2021/06/12 04:12:10;;;;;;;26.30;4.90;;;13.90;99.90;;;;;;5133957;27;20180;-62
2021/06/12 04:14:36;;;;;;;23.25;4.85;;;14.00;99.90;;;;;;5133492;27;20192;-61
2021/06/12 04:17:04;;;;;;;26.80;5.90;;;13.90;99.90;;;;;;5134475;27;20175;-60
2021/06/12 04:19:30;;;;;;;21.27;4.63;;;13.90;99.90;;;;;;5133400;27;20172;-60
2021/06/12 04:21:56;;;;;;;26.67;5.25;;;13.90;99.90;;;;;;5132660;27;20200;-60
2021/06/12 04:24:22;;;;;;;24.10;5.20;;;13.80;99.90;;;;;;5133432;27;20558;-60
2021/06/12 04:26:48;;;;;;;20.50;4.13;;;13.80;99.90;;;;;;5133526;27;20179;-60
2021/06/12 04:29:14;;;;;;;24.48;4.97;;;13.80;99.90;;;;;;5116005;27;20182;-61
2021/06/12 04:31:40;;;;;;;26.60;5.00;;;13.80;99.90;;;;;;5133354;27;20197;-62
2021/06/12 04:34:06;;;;;;;14.15;3.58;;;13.80;99.90;;;;;;5134108;27;20176;-59
2021/06/12 04:36:33;;;;;;;23.50;3.67;;;13.80;99.90;;;;;;5113880;27;20176;-60
2021/06/12 04:38:59;;;;;;;24.92;4.22;;;13.80;99.90;;;;;;5133795;27;20540;-60
2021/06/12 04:41:25;;;;;;;19.17;3.50;;;13.80;99.90;;;;;;5134064;27;20216;-60
2021/06/12 04:43:51;;;;;;;17.33;3.72;;;13.80;99.90;;;;;;5132893;27;20215;-60
2021/06/12 04:46:17;;;;;;;21.90;4.82;;;13.70;99.90;;;;;;5132069;27;20530;-60
2021/06/12 04:48:43;;;;;;;18.90;3.10;;;13.70;99.90;;;;;;5113412;27;20187;-60
2021/06/12 04:51:09;;;;;;;19.02;2.80;;;13.80;99.90;;;;;;5134000;27;20538;-60
2021/06/12 04:53:35;;;;;;;18.02;3.67;;;13.90;99.90;;;;;;5115534;27;20237;-60
2021/06/12 04:56:01;;;;;;;22.08;3.20;;;14.00;99.90;;;;;;5133402;27;20180;-60
2021/06/12 04:58:28;;;;;;;17.83;2.92;;;14.00;99.90;;;;;;5133421;27;20183;-61
2021/06/12 05:00:54;;;;;;;35.95;4.55;;;14.00;99.90;;;;;;5133423;27;20179;-61
2021/06/12 05:03:20;;;;;;;18.92;3.25;;;14.00;99.90;;;;;;5134060;27;20679;-61
2021/06/12 05:05:49;;;;;;;23.35;4.20;;;14.00;99.90;;;;;;5132636;27;20194;-60
2021/06/12 05:08:16;;;;;;;30.67;3.58;;;14.00;99.90;;;;;;5114614;28;20636;-60
2021/06/12 05:10:42;;;;;;;26.70;3.55;;;14.00;99.90;;;;;;5132125;28;20186;-60
2021/06/12 05:13:08;;;;;;;26.02;3.60;;;14.00;99.90;;;;;;5132587;28;20199;-61
2021/06/12 05:15:34;;;;;;;28.23;4.57;;;14.00;99.90;;;;;;5133048;28;20175;-61
2021/06/12 05:18:04;;;;;;;37.78;4.35;;;14.10;99.90;;;;;;5133720;28;20233;-60
2021/06/12 05:20:37;;;;;;;20.88;3.97;;;14.10;99.90;;;;;;5133208;27;20172;-60
2021/06/12 05:23:04;;;;;;;17.75;3.83;;;14.00;99.90;;;;;;5135450;27;20199;-60
2021/06/12 05:25:31;;;;;;;29.08;4.80;;;14.10;99.90;;;;;;5119712;27;20508;-61
2021/06/12 05:27:57;;;;;;;28.10;3.97;;;14.20;99.90;;;;;;5118499;27;20179;-61
2021/06/12 05:30:23;;;;;;;20.90;3.72;;;14.30;99.90;;;;;;5137953;27;20169;-61
2021/06/12 05:32:49;;;;;;;22.25;3.53;;;14.40;99.90;;;;;;5137478;27;20180;-61
2021/06/12 05:35:15;;;;;;;16.05;3.40;;;14.40;99.90;;;;;;5135746;27;20628;-61
2021/06/12 05:37:41;;;;;;;26.73;4.53;;;14.30;99.90;;;;;;5136667;27;20566;-61
2021/06/12 05:40:09;;;;;;;18.88;3.35;;;14.30;99.90;;;;;;5119232;27;20523;-60
2021/06/12 05:42:35;;;;;;;23.92;3.28;;;14.30;99.90;;;;;;5137085;27;20219;-60
2021/06/12 05:45:01;;;;;;;19.85;4.32;;;14.40;99.90;;;;;;5137525;27;20172;-60
2021/06/12 05:47:27;;;;;;;29.52;5.00;;;14.40;99.90;;;;;;5137011;27;20187;-59
2021/06/12 05:49:54;;;;;;;27.10;3.30;;;14.30;99.90;;;;;;5136707;27;20176;-59
2021/06/12 05:52:20;;;;;;;28.30;4.32;;;14.40;99.90;;;;;;5135829;27;20179;-60
2021/06/12 05:54:46;;;;;;;22.88;3.22;;;14.40;99.90;;;;;;5136092;27;20195;-59
2021/06/12 05:57:12;;;;;;;23.58;4.25;;;14.50;99.90;;;;;;5136639;27;20176;-60
2021/06/12 05:59:38;;;;;;;26.65;3.15;;;14.60;99.90;;;;;;5136295;27;20183;-60
2021/06/12 06:02:04;;;;;;;27.17;3.67;;;14.70;99.90;;;;;;5136211;27;20192;-60
2021/06/12 06:04:30;;;;;;;22.13;3.50;;;14.90;99.90;;;;;;5136837;27;20168;-60
2021/06/12 06:06:56;;;;;;;22.35;3.83;;;15.10;99.90;;;;;;5136148;27;20624;-62
2021/06/12 06:09:22;;;;;;;21.15;4.00;;;15.00;99.90;;;;;;5136438;27;20183;-61
2021/06/12 06:11:48;;;;;;;21.48;3.85;;;14.90;99.90;;;;;;5136805;27;20624;-61
2021/06/12 06:14:15;;;;;;;23.58;3.10;;;14.90;99.90;;;;;;5136957;27;20172;-59
2021/06/12 06:16:41;;;;;;;19.20;3.33;;;14.80;99.90;;;;;;5135202;27;20168;-63
2021/06/12 06:19:09;;;;;;;23.58;3.45;;;14.90;99.90;;;;;;5135535;27;20528;-60
2021/06/12 06:21:36;;;;;;;15.98;3.05;;;15.20;99.90;;;;;;5135065;27;20218;-61
2021/06/12 06:24:03;;;;;;;15.80;3.00;;;15.20;99.90;;;;;;5118026;27;20208;-63
2021/06/12 06:26:30;;;;;;;14.43;2.42;;;15.20;99.90;;;;;;5117341;27;20184;-60
2021/06/12 06:28:56;;;;;;;20.60;2.63;;;15.20;99.90;;;;;;5135164;27;20186;-62
2021/06/12 06:31:22;;;;;;;19.80;3.00;;;15.30;99.90;;;;;;5115901;28;20188;-61
2021/06/12 06:33:48;;;;;;;18.52;4.03;;;15.30;99.90;;;;;;5115647;28;20181;-61
2021/06/12 06:36:14;;;;;;;19.58;2.70;;;15.30;99.90;;;;;;5116002;28;20169;-60
2021/06/12 06:38:41;;;;;;;12.38;2.25;;;15.20;99.90;;;;;;5115602;28;20648;-60
2021/06/12 06:41:07;;;;;;;14.35;2.15;;;15.10;99.90;;;;;;5116178;28;20216;-62
2021/06/12 06:43:34;;;;;;;21.50;3.25;;;15.10;99.90;;;;;;5116012;27;20687;-60
2021/06/12 06:46:00;;;;;;;14.23;2.78;;;15.20;99.90;;;;;;5135862;27;20175;-61
2021/06/12 06:48:26;;;;;;;15.73;2.67;;;15.40;99.90;;;;;;5136411;27;20535;-61
2021/06/12 06:50:52;;;;;;;11.77;3.25;;;15.40;99.90;;;;;;5140149;27;20190;-60
2021/06/12 06:53:18;;;;;;;21.83;2.85;;;15.50;99.90;;;;;;5142137;27;20179;-60
2021/06/12 06:55:44;;;;;;;11.82;2.75;;;15.60;99.90;;;;;;5143838;27;20176;-61
2021/06/12 06:58:10;;;;;;;15.13;4.13;;;15.60;99.90;;;;;;5136364;27;20191;-61
2021/06/12 07:00:36;;;;;;;18.33;2.85;;;15.60;99.90;;;;;;5116290;27;20176;-62
2021/06/12 07:03:02;;;;;;;20.73;2.10;;;15.70;99.90;;;;;;5134432;27;20656;-62
2021/06/12 07:05:29;;;;;;;16.60;2.88;;;15.60;99.90;;;;;;5128292;27;20176;-62
2021/06/12 07:07:55;;;;;;;10.85;2.67;;;15.60;99.90;;;;;;5128081;27;20175;-61
2021/06/12 07:10:21;;;;;;;13.32;2.70;;;15.60;99.90;;;;;;5131867;27;20171;-63
2021/06/12 07:12:47;;;;;;;20.73;3.03;;;15.60;99.90;;;;;;5152295;27;20172;-61
2021/06/12 07:15:13;;;;;;;12.82;2.92;;;15.60;99.90;;;;;;5140769;27;20539;-61
2021/06/12 07:17:39;;;;;;;13.55;2.97;;;15.60;99.90;;;;;;5123088;27;20178;-61
2021/06/12 07:20:06;;;;;;;20.00;3.88;;;15.70;99.90;;;;;;5136745;27;20713;-62
2021/06/12 07:22:32;;;;;;;23.58;3.70;;;15.60;99.90;;;;;;5138492;27;20171;-62
2021/06/12 07:24:59;;;;;;;18.98;3.22;;;15.60;99.90;;;;;;5146429;27;20187;-64
2021/06/12 07:27:25;;;;;;;10.95;2.58;;;15.70;99.90;;;;;;5135379;27;20183;-61
2021/06/12 07:29:51;;;;;;;28.35;3.88;;;15.50;99.90;;;;;;5134435;27;20624;-60
2021/06/12 07:32:17;;;;;;;20.63;3.33;;;15.70;99.90;;;;;;5134060;27;20172;-61
2021/06/12 07:34:43;;;;;;;;;;;15.80;99.90;;;;;;5134467;27;20632;-61
2021/06/12 07:37:09;;;;;;;20.92;3.70;;;16.00;99.90;;;;;;5135459;27;20165;-61
2021/06/12 07:39:35;;;;;;;16.48;3.50;;;16.10;99.90;;;;;;5131604;27;20172;-62
2021/06/12 07:42:01;;;;;;;19.23;3.88;;;16.00;99.90;;;;;;5133210;27;20556;-61
2021/06/12 07:44:27;;;;;;;19.33;3.55;;;16.30;99.90;;;;;;5132598;27;20215;-61
2021/06/12 07:46:53;;;;;;;14.75;3.60;;;16.20;99.90;;;;;;5132950;27;20172;-61
2021/06/12 07:49:20;;;;;;;19.15;3.63;;;16.40;99.90;;;;;;5133853;27;20187;-60
2021/06/12 07:51:46;;;;;;;19.10;3.10;;;16.20;99.90;;;;;;5130980;27;20191;-60
2021/06/12 07:54:12;;;;;;;23.58;3.80;;;16.10;99.90;;;;;;5118536;27;20183;-61
2021/06/12 07:56:38;;;;;;;23.63;3.70;;;16.00;99.90;;;;;;5133904;27;20544;-61
2021/06/12 07:59:04;;;;;;;20.92;4.15;;;16.00;99.90;;;;;;5130760;27;20179;-60
2021/06/12 08:01:30;;;;;;;13.60;3.50;;;16.20;99.90;;;;;;5113758;27;20172;-60
2021/06/12 08:03:56;;;;;;;16.38;2.92;;;16.40;99.90;;;;;;5113826;27;20576;-61
2021/06/12 08:06:23;;;;;;;19.63;3.20;;;16.20;99.90;;;;;;5132633;27;20180;-60
2021/06/12 08:08:49;;;;;;;21.27;3.80;;;16.00;99.90;;;;;;5132302;27;20176;-61
2021/06/12 08:11:15;;;;;;;13.70;3.25;;;15.90;99.90;;;;;;5113653;27;20184;-62
2021/06/12 08:13:41;;;;;;;21.00;4.05;;;16.00;99.90;;;;;;5132471;27;20181;-62
2021/06/12 08:16:07;;;;;;;14.55;3.20;;;16.00;99.90;;;;;;5131201;27;20187;-62
2021/06/12 08:18:33;;;;;;;12.10;3.10;;;16.40;99.90;;;;;;5132659;27;20191;-62
2021/06/12 08:20:59;;;;;;;21.48;3.58;;;16.70;99.90;;;;;;5128035;27;20176;-62
2021/06/12 08:23:25;;;;;;;17.80;3.70;;;16.70;99.90;;;;;;5133939;27;20210;-62
2021/06/12 08:25:51;;;;;;;15.32;3.10;;;16.60;99.90;;;;;;5133842;27;20616;-60
2021/06/12 08:28:18;;;;;;;18.02;3.40;;;17.00;99.90;;;;;;5134612;27;20179;-61
2021/06/12 08:30:44;;;;;;;15.20;3.47;;;16.90;99.90;;;;;;5133907;27;20190;-60
2021/06/12 08:33:10;;;;;;;19.73;2.97;;;17.00;99.90;;;;;;5114837;27;20175;-61
2021/06/12 08:35:36;;;;;;;15.38;3.53;;;17.30;99.90;;;;;;5134195;27;20175;-61
2021/06/12 08:38:02;;;;;;;18.63;3.33;;;17.50;99.90;;;;;;5133533;27;20199;-61
2021/06/12 08:40:28;;;;;;;14.43;3.17;;;17.30;98.70;;;;;;5134076;27;20172;-61
2021/06/12 08:42:55;;;;;;;14.50;3.78;;;18.00;99.10;;;;;;5133969;27;20253;-61
2021/06/12 08:45:30;;;;;;;14.40;3.47;;;18.10;97.20;;;;;;5133311;27;20184;-62
2021/06/12 08:47:57;;;;;;;15.75;3.72;;;17.80;96.00;;;;;;5133966;27;20155;-62
2021/06/12 08:50:24;;;;;;;12.90;3.72;;;18.10;96.00;;;;;;5133466;27;20192;-61
2021/06/12 08:52:51;;;;;;;14.27;4.07;;;18.50;95.20;;;;;;5133755;27;20164;-61
2021/06/12 08:55:17;;;;;;;9.32;3.15;;;18.70;94.50;;;;;;5133605;27;20170;-63
2021/06/12 08:57:43;;;;;;;14.32;3.53;;;19.00;92.40;;;;;;5133136;27;20176;-62
2021/06/12 09:00:10;;;;;;;16.40;3.55;;;19.30;92.70;;;;;;5133638;27;20167;-62
2021/06/12 09:03:07;;;;;;;14.70;3.80;;;19.60;91.30;;;;;;5134220;27;20187;-62
2021/06/12 09:05:40;;;;;;;19.70;4.00;;;20.20;91.10;;;;;;5133905;27;19918;-62
2021/06/12 09:08:07;;;;;;;20.17;3.88;;;20.60;90.60;;;;;;5133049;27;20351;-63
2021/06/12 09:10:33;;;;;;;17.33;3.70;;;21.00;84.90;;;;;;5133935;28;20553;-62
2021/06/12 09:13:00;;;;;;;14.05;3.88;;;20.60;81.30;;;;;;5114742;28;20192;-63
2021/06/12 09:15:27;;;;;;;14.05;3.70;;;20.90;82.40;;;;;;5133712;28;20168;-62
2021/06/12 09:17:53;;;;;;;10.15;3.90;;;20.90;80.30;;;;;;5133450;28;20172;-61
2021/06/12 09:20:40;;;;;;;9.88;3.55;;;20.70;79.20;;;;;;5133643;28;20175;-61
2021/06/12 09:23:18;;;;;;;19.02;4.32;;;20.50;81.30;;;;;;5133342;28;20192;-62
2021/06/12 09:25:48;;;;;;;20.00;4.28;;;20.00;79.60;;;;;;5115573;28;20156;-62
2021/06/12 09:28:14;;;;;;;14.80;4.22;;;19.40;81.80;;;;;;5114597;28;20183;-62
2021/06/12 09:30:41;;;;;;;21.33;4.93;;;19.10;83.50;;;;;;5133705;28;20172;-61
2021/06/12 09:33:07;;;;;;;18.77;4.53;;;20.30;86.70;;;;;;5132873;28;20184;-62
2021/06/12 09:35:35;;;;;;;12.13;3.88;;;20.50;81.70;;;;;;5115285;28;20175;-61
2021/06/12 09:38:01;;;;;;;12.77;4.30;;;20.60;78.30;;;;;;5133287;28;20187;-61
2021/06/12 09:40:31;;;;;;;;;;;20.30;77.20;;;;;;5133799;28;20027;-62
2021/06/12 09:42:57;;;;;;;;;;;19.50;81.40;;;;;;5132997;28;19908;-62
2021/06/12 09:45:33;;;;;;;16.67;5.53;;;19.60;82.50;;;;;;5132539;28;20370;-60
2021/06/12 09:48:17;;;;;;;13.60;4.18;;;20.00;88.50;;;;;;5133169;28;20178;-60
2021/06/12 09:50:44;;;;;;;;;;;19.80;81.80;;;;;;5133319;28;20048;-63
2021/06/12 09:53:17;;;;;;;;;;;19.50;86.10;;;;;;5133311;28;19903;-62
2021/06/12 09:55:43;;;;;;;;;;;19.40;83.70;;;;;;5133778;28;19907;-62
2021/06/12 09:58:09;;;;;;;;;;;19.30;83.10;;;;;;5133522;28;20351;-62
2021/06/12 10:00:39;;;;;;;;;;;19.70;84.90;;;;;;5133820;28;19950;-63
2021/06/12 10:03:17;;;;;;;;;;;19.60;85.90;;;;;;5133256;28;19918;-61
2021/06/12 10:05:44;;;;;;;15.63;4.75;;;19.60;80.50;;;;;;5133287;28;20450;-60
2021/06/12 10:08:10;;;;;;;14.48;5.10;;;18.80;80.80;;;;;;5135278;27;20168;-61
2021/06/12 10:10:37;;;;;;;24.65;6.03;;;18.30;83.70;;;;;;5118788;27;20163;-61
2021/06/12 10:13:05;;;;;;;16.55;4.78;;;19.00;85.00;;;;;;5118202;27;20176;-62
2021/06/12 10:15:31;;;;;;;13.48;4.05;;;19.40;82.50;;;;;;5119038;27;20179;-59
2021/06/12 10:17:57;;;;;;;10.93;4.18;;;19.30;79.80;;;;;;5117437;27;20168;-59
2021/06/12 10:20:24;;;;;;;17.48;4.18;;;20.20;78.80;;;;;;5101653;27;20175;-59
2021/06/12 10:22:51;;;;;;;13.05;4.90;;;19.80;73.90;;;;;;5100579;27;20175;-58
2021/06/12 10:25:19;;;;;;;16.38;4.43;;;19.70;76.10;;;;;;5136848;27;20207;-58
2021/06/12 10:27:45;;;;;;;19.83;4.88;;;19.30;77.60;;;;;;5136767;27;20164;-60
2021/06/12 10:30:13;;;;;;;11.13;3.42;;;18.80;75.40;;;;;;5117307;27;20647;-59
2021/06/12 10:32:49;;;;;;;11.38;3.67;;;18.50;75.50;;;;;;5135155;27;20188;-60
2021/06/12 10:35:19;;;;;;;12.75;3.72;;;18.90;77.10;;;;;;5136391;27;20178;-59
2021/06/12 10:37:59;;;;;;;12.35;4.30;;;19.60;77.20;;;;;;5136695;27;20196;-59
2021/06/12 10:40:38;;;;;;;11.13;3.92;;;19.40;76.00;;;;;;5135932;27;20186;-60
2021/06/12 10:43:13;;;;;;;13.55;3.70;;;19.70;77.50;;;;;;5117378;27;20187;-60
2021/06/12 10:45:39;;;;;;;21.85;4.05;;;20.10;74.40;;;;;;5135020;27;20163;-60
2021/06/12 10:48:05;;;;;;;15.77;4.40;;;20.30;78.10;;;;;;5134358;27;20191;-60
2021/06/12 10:50:42;;;;;;;11.25;3.90;;;19.90;73.50;;;;;;5118112;27;20175;-59
2021/06/12 10:53:15;;;;;;;13.82;3.83;;;19.60;73.70;;;;;;5135512;27;20168;-61
2021/06/12 10:55:54;;;;;;;14.93;3.92;;;19.00;77.20;;;;;;5135524;27;20176;-60
2021/06/12 10:58:30;;;;;;;;;;;19.20;81.40;;;;;;5134553;27;20028;-60
2021/06/12 11:01:17;;;;;;;;;;;18.70;80.10;;;;;;5135383;27;19907;-62
2021/06/12 11:06:50;;;;;;;;;;;19.40;79.70;;;;;;5122318;27;19923;-59
2021/06/12 11:09:18;;;;;;;;;;;19.00;82.50;;;;;;5135784;27;20287;-60
2021/06/12 11:11:48;;;;;;;;;;;18.90;78.10;;;;;;5134783;27;19903;-61
2021/06/12 11:14:22;;;;;;;;;;;18.60;79.10;;;;;;5134257;27;20356;-61
2021/06/12 11:17:07;;;;;;;;;;;18.40;79.60;;;;;;5135707;27;19907;-60
2021/06/12 11:19:43;;;;;;;;;;;18.40;80.60;;;;;;5134584;27;19903;-61
2021/06/12 11:22:41;;;;;;;;;;;19.20;80.90;;;;;;5135551;27;19907;-61
2021/06/12 11:25:07;;;;;;;;;;;19.40;80.60;;;;;;5090003;27;19911;-60
2021/06/12 11:27:33;;;;;;;;;;;19.10;82.20;;;;;;5135942;27;19903;-60
2021/06/12 11:30:20;;;;;;;;;;;19.40;82.20;;;;;;5135333;27;20061;-60
2021/06/12 11:32:49;;;;;;;;;;;19.20;81.40;;;;;;5135322;27;19918;-60
2021/06/12 11:35:34;;;;;;;;;;;18.70;78.70;;;;;;5135630;27;19910;-60
2021/06/12 11:38:00;;;;;;;;;;;18.40;79.10;;;;;;5134914;27;19912;-60
2021/06/12 11:40:26;;;;;;;;;;;18.70;81.90;;;;;;5134253;27;19915;-59
2021/06/12 11:42:52;;;;;;;;;;;18.30;78.30;;;;;;5135628;27;19965;-60
2021/06/12 11:45:18;;;;;;;;;;;18.50;82.40;;;;;;5134686;27;19919;-60
2021/06/12 11:47:44;;;;;;;;;;;18.50;82.20;;;;;;5135879;27;20389;-60
2021/06/12 11:50:10;;;;;;;;;;;18.10;78.40;;;;;;5135650;27;20394;-61
2021/06/12 11:52:39;;;;;;;;;;;18.30;83.70;;;;;;5134678;27;19907;-60
2021/06/12 11:55:18;;;;;;;;;;;18.40;83.00;;;;;;5115875;27;20279;-60
2021/06/12 11:57:45;;;;;;;;;;;18.10;79.90;;;;;;5135666;27;19910;-61
2021/06/12 12:00:30;;;;;;;;;;;17.90;80.30;;;;;;5135243;27;19907;-62
2021/06/12 12:02:59;;;;;;;;;;;17.90;81.70;;;;;;5135466;27;19912;-60
2021/06/12 12:05:32;;;;;;;;;;;17.70;79.10;;;;;;5135129;27;20360;-62
2021/06/12 12:07:58;;;;;;;;;;;17.90;83.20;;;;;;5134571;27;19911;-60
2021/06/12 12:10:24;;;;;;;;;;;18.30;82.70;;;;;;5134801;27;19907;-61
2021/06/12 12:12:50;;;;;;;;;;;18.30;83.50;;;;;;5134497;27;19935;-62
2021/06/12 12:15:32;;;;;;;;;;;18.20;83.70;;;;;;5112223;27;20348;-61
2021/06/12 12:18:05;;;;;;;;;;;18.30;85.30;;;;;;5135673;27;19908;-63
2021/06/12 12:20:49;;;;;;;;;;;18.30;84.10;;;;;;5133611;27;19907;-60
2021/06/12 12:23:18;;;;;;;;;;;18.10;86.00;;;;;;5104160;27;19911;-61
2021/06/12 12:25:44;;;;;;;;;;;18.10;85.50;;;;;;5134879;27;19911;-60
2021/06/12 12:28:13;;;;;;;;;;;18.30;84.20;;;;;;5134642;27;20275;-61
2021/06/12 12:30:39;;;;;;;;;;;18.30;88.60;;;;;;5134724;27;19908;-62
2021/06/12 12:33:08;;;;;;;;;;;18.40;85.30;;;;;;5134754;27;19917;-61
2021/06/12 12:35:34;;;;;;;;;;;18.40;85.30;;;;;;5114676;27;20390;-61
2021/06/12 12:38:19;;;;;;;;;;;18.30;84.30;;;;;;5133165;27;19915;-61
2021/06/12 12:40:45;;;;;;;;;;;18.30;83.80;;;;;;5116295;27;19919;-60
2021/06/12 12:43:12;;;;;;;;;;;18.20;83.90;;;;;;5134408;27;19915;-59
2021/06/12 12:45:38;;;;;;;;;;;18.30;82.90;;;;;;5134569;27;20376;-61
2021/06/12 12:48:04;;;;;;;;;;;18.20;85.90;;;;;;5115071;27;19907;-62
2021/06/12 12:50:30;;;;;;;;;;;18.30;84.80;;;;;;5115707;27;19907;-62
2021/06/12 12:53:05;;;;;;;;;;;18.10;84.80;;;;;;5133283;27;20356;-60
2021/06/12 12:55:31;;;;;;;;;;;18.20;87.50;;;;;;5132727;27;20295;-60
2021/06/12 12:57:57;;;;;;;;;;;18.40;86.70;;;;;;5132811;27;19908;-59
2021/06/12 13:00:23;;;;;;;;;;;17.90;82.90;;;;;;5138525;27;19912;-60